sensor_id;sensor_type;location;lat;lon;timestamp;P1;durP1;ratioP1;P2;durP2;ratioP2
1354;SDS011;671;48.972;9.276;2023-03-19T00:00:15;0.70;;;0.70;;
1354;SDS011;671;48.972;9.276;2023-03-19T00:02:42;0.50;;;0.50;;
1354;SDS011;671;48.972;9.276;2023-03-19T00:05:14;0.70;;;0.70;;
1354;SDS011;671;48.972;9.276;2023-03-19T00:07:41;0.40;;;0.40;;
1354;SDS011;671;48.972;9.276;2023-03-19T00:10:07;0.60;;;0.60;;
1354;SDS011;671;48.972;9.276;2023-03-19T00:12:34;0.50;;;0.50;;
1354;SDS011;671;48.972;9.276;2023-03-19T00:15:01;0.50;;;0.50;;
1354;SDS011;671;48.972;9.276;2023-03-19T00:17:28;0.50;;;0.50;;
1354;SDS011;671;48.972;9.276;2023-03-19T00:19:54;0.60;;;0.60;;
1354;SDS011;671;48.972;9.276;2023-03-19T00:22:21;0.50;;;0.50;;
1354;SDS011;671;48.972;9.276;2023-03-19T00:24:48;0.60;;;0.60;;
1354;SDS011;671;48.972;9.276;2023-03-19T00:27:14;0.60;;;0.60;;
1354;SDS011;671;48.972;9.276;2023-03-19T00:29:41;0.60;;;0.60;;
1354;SDS011;671;48.972;9.276;2023-03-19T00:32:07;0.60;;;0.60;;
1354;SDS011;671;48.972;9.276;2023-03-19T00:34:34;0.60;;;0.60;;
1354;SDS011;671;48.972;9.276;2023-03-19T00:37:00;0.60;;;0.60;;
1354;SDS011;671;48.972;9.276;2023-03-19T00:39:27;0.53;;;0.53;;
1354;SDS011;671;48.972;9.276;2023-03-19T00:41:53;0.57;;;0.57;;
1354;SDS011;671;48.972;9.276;2023-03-19T00:44:20;0.60;;;0.60;;
1354;SDS011;671;48.972;9.276;2023-03-19T00:46:46;0.60;;;0.60;;
1354;SDS011;671;48.972;9.276;2023-03-19T00:49:12;0.60;;;0.60;;
1354;SDS011;671;48.972;9.276;2023-03-19T00:51:39;0.50;;;0.50;;
1354;SDS011;671;48.972;9.276;2023-03-19T00:54:09;0.60;;;0.60;;
1354;SDS011;671;48.972;9.276;2023-03-19T00:56:36;0.50;;;0.50;;
1354;SDS011;671;48.972;9.276;2023-03-19T00:59:03;0.57;;;0.57;;
1354;SDS011;671;48.972;9.276;2023-03-19T01:01:30;0.50;;;0.50;;
1354;SDS011;671;48.972;9.276;2023-03-19T01:03:57;0.60;;;0.60;;
1354;SDS011;671;48.972;9.276;2023-03-19T01:06:24;0.50;;;0.50;;
1354;SDS011;671;48.972;9.276;2023-03-19T01:08:50;0.50;;;0.50;;
1354;SDS011;671;48.972;9.276;2023-03-19T01:11:17;0.63;;;0.63;;
1354;SDS011;671;48.972;9.276;2023-03-19T01:13:44;0.63;;;0.63;;
1354;SDS011;671;48.972;9.276;2023-03-19T01:16:11;0.50;;;0.50;;
1354;SDS011;671;48.972;9.276;2023-03-19T01:18:37;0.70;;;0.70;;
1354;SDS011;671;48.972;9.276;2023-03-19T01:21:04;0.57;;;0.57;;
1354;SDS011;671;48.972;9.276;2023-03-19T01:23:32;0.57;;;0.57;;
1354;SDS011;671;48.972;9.276;2023-03-19T01:25:59;0.40;;;0.40;;
1354;SDS011;671;48.972;9.276;2023-03-19T01:28:25;0.50;;;0.50;;
1354;SDS011;671;48.972;9.276;2023-03-19T01:30:52;0.60;;;0.60;;
1354;SDS011;671;48.972;9.276;2023-03-19T01:33:22;0.50;;;0.50;;
1354;SDS011;671;48.972;9.276;2023-03-19T01:35:49;0.53;;;0.53;;
1354;SDS011;671;48.972;9.276;2023-03-19T01:38:16;0.37;;;0.37;;
1354;SDS011;671;48.972;9.276;2023-03-19T01:40:46;0.60;;;0.60;;
1354;SDS011;671;48.972;9.276;2023-03-19T01:45:43;0.50;;;0.50;;
1354;SDS011;671;48.972;9.276;2023-03-19T01:48:16;0.60;;;0.60;;
1354;SDS011;671;48.972;9.276;2023-03-19T01:50:50;0.57;;;0.57;;
1354;SDS011;671;48.972;9.276;2023-03-19T01:53:38;0.50;;;0.50;;
1354;SDS011;671;48.972;9.276;2023-03-19T01:56:11;0.40;;;0.40;;
1354;SDS011;671;48.972;9.276;2023-03-19T01:58:47;0.50;;;0.50;;
1354;SDS011;671;48.972;9.276;2023-03-19T02:01:18;0.67;;;0.67;;
1354;SDS011;671;48.972;9.276;2023-03-19T02:03:45;0.40;;;0.40;;
1354;SDS011;671;48.972;9.276;2023-03-19T02:06:13;0.47;;;0.47;;
1354;SDS011;671;48.972;9.276;2023-03-19T02:08:41;0.60;;;0.60;;
1354;SDS011;671;48.972;9.276;2023-03-19T02:11:08;0.50;;;0.50;;
1354;SDS011;671;48.972;9.276;2023-03-19T02:13:35;0.50;;;0.50;;
1354;SDS011;671;48.972;9.276;2023-03-19T02:16:03;0.47;;;0.47;;
1354;SDS011;671;48.972;9.276;2023-03-19T02:18:30;0.50;;;0.50;;
1354;SDS011;671;48.972;9.276;2023-03-19T02:20:59;0.50;;;0.50;;
1354;SDS011;671;48.972;9.276;2023-03-19T02:26:41;0.57;;;0.57;;
1354;SDS011;671;48.972;9.276;2023-03-19T02:29:09;0.40;;;0.40;;
1354;SDS011;671;48.972;9.276;2023-03-19T02:31:36;0.50;;;0.50;;
1354;SDS011;671;48.972;9.276;2023-03-19T02:34:04;0.50;;;0.50;;
1354;SDS011;671;48.972;9.276;2023-03-19T02:36:34;0.40;;;0.40;;
1354;SDS011;671;48.972;9.276;2023-03-19T02:39:06;0.50;;;0.50;;
1354;SDS011;671;48.972;9.276;2023-03-19T02:41:38;0.60;;;0.60;;
1354;SDS011;671;48.972;9.276;2023-03-19T02:44:06;0.50;;;0.50;;
1354;SDS011;671;48.972;9.276;2023-03-19T02:46:36;0.60;;;0.60;;
1354;SDS011;671;48.972;9.276;2023-03-19T02:49:03;0.40;;;0.40;;
1354;SDS011;671;48.972;9.276;2023-03-19T02:51:30;0.70;;;0.70;;
1354;SDS011;671;48.972;9.276;2023-03-19T02:53:56;0.50;;;0.50;;
1354;SDS011;671;48.972;9.276;2023-03-19T02:56:23;0.50;;;0.50;;
1354;SDS011;671;48.972;9.276;2023-03-19T02:58:49;0.43;;;0.43;;
1354;SDS011;671;48.972;9.276;2023-03-19T03:01:16;0.53;;;0.53;;
1354;SDS011;671;48.972;9.276;2023-03-19T03:03:42;0.60;;;0.60;;
1354;SDS011;671;48.972;9.276;2023-03-19T03:06:08;0.50;;;0.50;;
1354;SDS011;671;48.972;9.276;2023-03-19T03:08:35;0.60;;;0.60;;
1354;SDS011;671;48.972;9.276;2023-03-19T03:11:02;0.57;;;0.57;;
1354;SDS011;671;48.972;9.276;2023-03-19T03:13:28;0.40;;;0.40;;
1354;SDS011;671;48.972;9.276;2023-03-19T03:15:54;0.70;;;0.70;;
1354;SDS011;671;48.972;9.276;2023-03-19T03:18:21;0.60;;;0.60;;
1354;SDS011;671;48.972;9.276;2023-03-19T03:20:47;0.60;;;0.60;;
1354;SDS011;671;48.972;9.276;2023-03-19T03:23:14;0.60;;;0.60;;
1354;SDS011;671;48.972;9.276;2023-03-19T03:25:41;0.50;;;0.50;;
1354;SDS011;671;48.972;9.276;2023-03-19T03:28:08;0.50;;;0.50;;
1354;SDS011;671;48.972;9.276;2023-03-19T03:30:35;0.50;;;0.50;;
1354;SDS011;671;48.972;9.276;2023-03-19T03:33:01;0.60;;;0.60;;
1354;SDS011;671;48.972;9.276;2023-03-19T03:35:28;0.60;;;0.60;;
1354;SDS011;671;48.972;9.276;2023-03-19T03:37:54;0.70;;;0.70;;
1354;SDS011;671;48.972;9.276;2023-03-19T03:40:21;0.50;;;0.50;;
1354;SDS011;671;48.972;9.276;2023-03-19T03:42:47;0.50;;;0.50;;
1354;SDS011;671;48.972;9.276;2023-03-19T03:45:14;0.60;;;0.60;;
1354;SDS011;671;48.972;9.276;2023-03-19T03:47:40;0.57;;;0.57;;
1354;SDS011;671;48.972;9.276;2023-03-19T03:50:07;0.57;;;0.57;;
1354;SDS011;671;48.972;9.276;2023-03-19T03:52:36;0.50;;;0.50;;
1354;SDS011;671;48.972;9.276;2023-03-19T03:55:03;0.60;;;0.60;;
1354;SDS011;671;48.972;9.276;2023-03-19T03:57:30;0.50;;;0.50;;
1354;SDS011;671;48.972;9.276;2023-03-19T03:59:56;0.50;;;0.50;;
1354;SDS011;671;48.972;9.276;2023-03-19T04:02:23;0.60;;;0.60;;
1354;SDS011;671;48.972;9.276;2023-03-19T04:04:50;0.40;;;0.40;;
1354;SDS011;671;48.972;9.276;2023-03-19T04:07:16;0.60;;;0.60;;
1354;SDS011;671;48.972;9.276;2023-03-19T04:09:43;0.70;;;0.70;;
1354;SDS011;671;48.972;9.276;2023-03-19T04:12:11;0.50;;;0.50;;
1354;SDS011;671;48.972;9.276;2023-03-19T04:14:38;0.47;;;0.47;;
1354;SDS011;671;48.972;9.276;2023-03-19T04:17:05;0.60;;;0.60;;
1354;SDS011;671;48.972;9.276;2023-03-19T04:19:31;0.40;;;0.40;;
1354;SDS011;671;48.972;9.276;2023-03-19T04:21:58;0.57;;;0.57;;
1354;SDS011;671;48.972;9.276;2023-03-19T04:24:24;0.40;;;0.40;;
1354;SDS011;671;48.972;9.276;2023-03-19T04:26:51;0.50;;;0.50;;
1354;SDS011;671;48.972;9.276;2023-03-19T04:29:18;0.50;;;0.50;;
1354;SDS011;671;48.972;9.276;2023-03-19T04:31:44;0.50;;;0.50;;
1354;SDS011;671;48.972;9.276;2023-03-19T04:34:11;0.50;;;0.50;;
1354;SDS011;671;48.972;9.276;2023-03-19T04:36:37;0.30;;;0.30;;
1354;SDS011;671;48.972;9.276;2023-03-19T04:39:04;0.43;;;0.43;;
1354;SDS011;671;48.972;9.276;2023-03-19T04:41:30;0.60;;;0.60;;
1354;SDS011;671;48.972;9.276;2023-03-19T04:43:57;0.67;;;0.67;;
1354;SDS011;671;48.972;9.276;2023-03-19T04:46:23;0.60;;;0.60;;
1354;SDS011;671;48.972;9.276;2023-03-19T04:48:50;0.60;;;0.60;;
1354;SDS011;671;48.972;9.276;2023-03-19T04:51:17;0.40;;;0.40;;
1354;SDS011;671;48.972;9.276;2023-03-19T04:53:46;0.50;;;0.50;;
1354;SDS011;671;48.972;9.276;2023-03-19T04:56:13;0.40;;;0.40;;
1354;SDS011;671;48.972;9.276;2023-03-19T04:58:41;0.40;;;0.40;;
1354;SDS011;671;48.972;9.276;2023-03-19T05:01:08;0.70;;;0.70;;
1354;SDS011;671;48.972;9.276;2023-03-19T05:03:34;0.60;;;0.60;;
1354;SDS011;671;48.972;9.276;2023-03-19T05:06:01;0.70;;;0.70;;
1354;SDS011;671;48.972;9.276;2023-03-19T05:08:27;0.60;;;0.60;;
1354;SDS011;671;48.972;9.276;2023-03-19T05:10:54;0.60;;;0.60;;
1354;SDS011;671;48.972;9.276;2023-03-19T05:13:21;0.50;;;0.50;;
1354;SDS011;671;48.972;9.276;2023-03-19T05:15:47;0.53;;;0.53;;
1354;SDS011;671;48.972;9.276;2023-03-19T05:18:14;0.60;;;0.60;;
1354;SDS011;671;48.972;9.276;2023-03-19T05:20:41;0.57;;;0.57;;
1354;SDS011;671;48.972;9.276;2023-03-19T05:23:07;0.50;;;0.50;;
1354;SDS011;671;48.972;9.276;2023-03-19T05:25:34;0.50;;;0.50;;
1354;SDS011;671;48.972;9.276;2023-03-19T05:28:01;0.57;;;0.57;;
1354;SDS011;671;48.972;9.276;2023-03-19T05:30:29;0.60;;;0.60;;
1354;SDS011;671;48.972;9.276;2023-03-19T05:32:56;0.53;;;0.53;;
1354;SDS011;671;48.972;9.276;2023-03-19T05:35:23;0.50;;;0.50;;
1354;SDS011;671;48.972;9.276;2023-03-19T05:37:50;0.37;;;0.30;;
1354;SDS011;671;48.972;9.276;2023-03-19T05:40:17;0.43;;;0.43;;
1354;SDS011;671;48.972;9.276;2023-03-19T05:42:43;0.50;;;0.50;;
1354;SDS011;671;48.972;9.276;2023-03-19T05:45:10;0.50;;;0.50;;
1354;SDS011;671;48.972;9.276;2023-03-19T05:47:37;0.50;;;0.50;;
1354;SDS011;671;48.972;9.276;2023-03-19T05:50:04;0.60;;;0.60;;
1354;SDS011;671;48.972;9.276;2023-03-19T05:52:31;0.60;;;0.60;;
1354;SDS011;671;48.972;9.276;2023-03-19T05:54:58;0.50;;;0.50;;
1354;SDS011;671;48.972;9.276;2023-03-19T05:57:24;0.40;;;0.40;;
1354;SDS011;671;48.972;9.276;2023-03-19T05:59:51;0.57;;;0.57;;
1354;SDS011;671;48.972;9.276;2023-03-19T06:02:18;0.57;;;0.57;;
1354;SDS011;671;48.972;9.276;2023-03-19T06:04:44;0.50;;;0.50;;
1354;SDS011;671;48.972;9.276;2023-03-19T06:07:10;0.50;;;0.50;;
1354;SDS011;671;48.972;9.276;2023-03-19T06:09:38;0.50;;;0.50;;
1354;SDS011;671;48.972;9.276;2023-03-19T06:12:06;0.37;;;0.37;;
1354;SDS011;671;48.972;9.276;2023-03-19T06:14:33;0.50;;;0.50;;
1354;SDS011;671;48.972;9.276;2023-03-19T06:16:59;0.60;;;0.60;;
1354;SDS011;671;48.972;9.276;2023-03-19T06:19:26;0.60;;;0.60;;
1354;SDS011;671;48.972;9.276;2023-03-19T06:21:52;0.67;;;0.67;;
1354;SDS011;671;48.972;9.276;2023-03-19T06:24:19;0.60;;;0.60;;
1354;SDS011;671;48.972;9.276;2023-03-19T06:26:45;0.63;;;0.63;;
1354;SDS011;671;48.972;9.276;2023-03-19T06:29:11;0.50;;;0.50;;
1354;SDS011;671;48.972;9.276;2023-03-19T06:31:38;0.60;;;0.60;;
1354;SDS011;671;48.972;9.276;2023-03-19T06:34:06;0.60;;;0.60;;
1354;SDS011;671;48.972;9.276;2023-03-19T06:36:33;0.50;;;0.50;;
1354;SDS011;671;48.972;9.276;2023-03-19T06:38:59;0.60;;;0.60;;
1354;SDS011;671;48.972;9.276;2023-03-19T06:41:26;0.50;;;0.50;;
1354;SDS011;671;48.972;9.276;2023-03-19T06:43:52;0.50;;;0.50;;
1354;SDS011;671;48.972;9.276;2023-03-19T06:46:19;0.50;;;0.50;;
1354;SDS011;671;48.972;9.276;2023-03-19T06:48:46;0.60;;;0.60;;
1354;SDS011;671;48.972;9.276;2023-03-19T06:51:12;0.60;;;0.60;;
1354;SDS011;671;48.972;9.276;2023-03-19T06:53:38;0.60;;;0.60;;
1354;SDS011;671;48.972;9.276;2023-03-19T06:56:05;0.50;;;0.50;;
1354;SDS011;671;48.972;9.276;2023-03-19T06:58:31;0.50;;;0.50;;
1354;SDS011;671;48.972;9.276;2023-03-19T07:00:58;0.50;;;0.50;;
1354;SDS011;671;48.972;9.276;2023-03-19T07:03:24;0.50;;;0.50;;
1354;SDS011;671;48.972;9.276;2023-03-19T07:05:51;0.50;;;0.50;;
1354;SDS011;671;48.972;9.276;2023-03-19T07:08:17;0.40;;;0.40;;
1354;SDS011;671;48.972;9.276;2023-03-19T07:10:44;0.50;;;0.50;;
1354;SDS011;671;48.972;9.276;2023-03-19T07:13:10;0.50;;;0.50;;
1354;SDS011;671;48.972;9.276;2023-03-19T07:15:37;0.50;;;0.50;;
1354;SDS011;671;48.972;9.276;2023-03-19T07:18:03;0.50;;;0.50;;
1354;SDS011;671;48.972;9.276;2023-03-19T07:20:30;0.50;;;0.50;;
1354;SDS011;671;48.972;9.276;2023-03-19T07:22:57;0.60;;;0.60;;
1354;SDS011;671;48.972;9.276;2023-03-19T07:25:23;0.40;;;0.40;;
1354;SDS011;671;48.972;9.276;2023-03-19T07:27:50;0.50;;;0.50;;
1354;SDS011;671;48.972;9.276;2023-03-19T07:30:17;0.60;;;0.60;;
1354;SDS011;671;48.972;9.276;2023-03-19T07:32:43;0.50;;;0.50;;
1354;SDS011;671;48.972;9.276;2023-03-19T07:35:10;0.50;;;0.50;;
1354;SDS011;671;48.972;9.276;2023-03-19T07:37:38;0.40;;;0.40;;
1354;SDS011;671;48.972;9.276;2023-03-19T07:40:05;0.50;;;0.50;;
1354;SDS011;671;48.972;9.276;2023-03-19T07:42:32;0.50;;;0.50;;
1354;SDS011;671;48.972;9.276;2023-03-19T07:45:02;0.47;;;0.47;;
1354;SDS011;671;48.972;9.276;2023-03-19T07:47:29;0.60;;;0.60;;
1354;SDS011;671;48.972;9.276;2023-03-19T07:49:56;0.40;;;0.30;;
1354;SDS011;671;48.972;9.276;2023-03-19T07:52:23;0.50;;;0.50;;
1354;SDS011;671;48.972;9.276;2023-03-19T07:54:51;0.50;;;0.50;;
1354;SDS011;671;48.972;9.276;2023-03-19T07:57:18;0.50;;;0.50;;
1354;SDS011;671;48.972;9.276;2023-03-19T07:59:45;0.50;;;0.50;;
1354;SDS011;671;48.972;9.276;2023-03-19T08:02:12;0.50;;;0.50;;
1354;SDS011;671;48.972;9.276;2023-03-19T08:04:39;0.43;;;0.43;;
1354;SDS011;671;48.972;9.276;2023-03-19T08:07:06;0.40;;;0.40;;
1354;SDS011;671;48.972;9.276;2023-03-19T08:09:35;0.50;;;0.50;;
1354;SDS011;671;48.972;9.276;2023-03-19T08:12:04;0.60;;;0.60;;
1354;SDS011;671;48.972;9.276;2023-03-19T08:14:32;0.50;;;0.50;;
1354;SDS011;671;48.972;9.276;2023-03-19T08:16:59;0.50;;;0.50;;
1354;SDS011;671;48.972;9.276;2023-03-19T08:19:26;0.50;;;0.50;;
1354;SDS011;671;48.972;9.276;2023-03-19T08:21:52;0.60;;;0.60;;
1354;SDS011;671;48.972;9.276;2023-03-19T08:24:19;0.50;;;0.50;;
1354;SDS011;671;48.972;9.276;2023-03-19T08:26:45;0.40;;;0.40;;
1354;SDS011;671;48.972;9.276;2023-03-19T08:29:12;0.40;;;0.40;;
1354;SDS011;671;48.972;9.276;2023-03-19T08:31:38;0.50;;;0.50;;
1354;SDS011;671;48.972;9.276;2023-03-19T08:34:04;0.47;;;0.47;;
1354;SDS011;671;48.972;9.276;2023-03-19T08:36:35;0.40;;;0.40;;
1354;SDS011;671;48.972;9.276;2023-03-19T08:39:01;0.43;;;0.43;;
1354;SDS011;671;48.972;9.276;2023-03-19T08:41:29;0.40;;;0.40;;
1354;SDS011;671;48.972;9.276;2023-03-19T08:43:56;0.50;;;0.50;;
1354;SDS011;671;48.972;9.276;2023-03-19T08:46:22;0.50;;;0.50;;
1354;SDS011;671;48.972;9.276;2023-03-19T08:48:48;0.50;;;0.50;;
1354;SDS011;671;48.972;9.276;2023-03-19T08:51:15;0.40;;;0.40;;
1354;SDS011;671;48.972;9.276;2023-03-19T08:53:41;0.40;;;0.40;;
1354;SDS011;671;48.972;9.276;2023-03-19T08:56:08;0.47;;;0.47;;
1354;SDS011;671;48.972;9.276;2023-03-19T08:58:34;0.50;;;0.50;;
1354;SDS011;671;48.972;9.276;2023-03-19T09:03:29;0.50;;;0.50;;
1354;SDS011;671;48.972;9.276;2023-03-19T09:05:57;0.50;;;0.50;;
1354;SDS011;671;48.972;9.276;2023-03-19T09:08:26;0.50;;;0.50;;
1354;SDS011;671;48.972;9.276;2023-03-19T09:10:53;0.40;;;0.40;;
1354;SDS011;671;48.972;9.276;2023-03-19T09:13:20;0.43;;;0.43;;
1354;SDS011;671;48.972;9.276;2023-03-19T09:15:47;0.37;;;0.30;;
1354;SDS011;671;48.972;9.276;2023-03-19T09:18:14;0.40;;;0.40;;
1354;SDS011;671;48.972;9.276;2023-03-19T09:20:41;0.50;;;0.50;;
1354;SDS011;671;48.972;9.276;2023-03-19T09:23:08;0.57;;;0.57;;
1354;SDS011;671;48.972;9.276;2023-03-19T09:25:35;0.53;;;0.53;;
1354;SDS011;671;48.972;9.276;2023-03-19T09:28:01;0.47;;;0.47;;
1354;SDS011;671;48.972;9.276;2023-03-19T09:30:28;0.40;;;0.40;;
1354;SDS011;671;48.972;9.276;2023-03-19T09:32:54;0.40;;;0.40;;
1354;SDS011;671;48.972;9.276;2023-03-19T09:35:21;0.40;;;0.30;;
1354;SDS011;671;48.972;9.276;2023-03-19T09:37:47;0.40;;;0.40;;
1354;SDS011;671;48.972;9.276;2023-03-19T09:40:24;0.40;;;0.40;;
1354;SDS011;671;48.972;9.276;2023-03-19T09:45:46;0.40;;;0.40;;
1354;SDS011;671;48.972;9.276;2023-03-19T09:48:15;0.40;;;0.37;;
1354;SDS011;671;48.972;9.276;2023-03-19T09:50:45;0.40;;;0.40;;
1354;SDS011;671;48.972;9.276;2023-03-19T09:53:17;0.30;;;0.30;;
1354;SDS011;671;48.972;9.276;2023-03-19T09:56:13;0.40;;;0.40;;
1354;SDS011;671;48.972;9.276;2023-03-19T09:58:41;0.50;;;0.50;;
1354;SDS011;671;48.972;9.276;2023-03-19T10:01:15;0.40;;;0.40;;
1354;SDS011;671;48.972;9.276;2023-03-19T10:06:51;0.40;;;0.30;;
1354;SDS011;671;48.972;9.276;2023-03-19T10:14:40;0.40;;;0.40;;
1354;SDS011;671;48.972;9.276;2023-03-19T10:17:20;0.40;;;0.30;;
1354;SDS011;671;48.972;9.276;2023-03-19T10:19:53;0.40;;;0.40;;
1354;SDS011;671;48.972;9.276;2023-03-19T10:22:29;0.40;;;0.40;;
1354;SDS011;671;48.972;9.276;2023-03-19T10:25:00;0.40;;;0.40;;
1354;SDS011;671;48.972;9.276;2023-03-19T10:27:27;0.40;;;0.30;;
1354;SDS011;671;48.972;9.276;2023-03-19T10:29:54;0.40;;;0.40;;
1354;SDS011;671;48.972;9.276;2023-03-19T10:32:32;0.30;;;0.30;;
1354;SDS011;671;48.972;9.276;2023-03-19T10:35:19;0.30;;;0.30;;
1354;SDS011;671;48.972;9.276;2023-03-19T10:37:49;0.40;;;0.40;;
1354;SDS011;671;48.972;9.276;2023-03-19T10:40:18;0.40;;;0.40;;
1354;SDS011;671;48.972;9.276;2023-03-19T10:42:54;0.30;;;0.30;;
1354;SDS011;671;48.972;9.276;2023-03-19T10:45:36;0.40;;;0.27;;
1354;SDS011;671;48.972;9.276;2023-03-19T10:48:03;0.30;;;0.30;;
1354;SDS011;671;48.972;9.276;2023-03-19T10:50:37;0.30;;;0.30;;
1354;SDS011;671;48.972;9.276;2023-03-19T10:53:33;0.40;;;0.40;;
1354;SDS011;671;48.972;9.276;2023-03-19T10:56:05;0.30;;;0.30;;
1354;SDS011;671;48.972;9.276;2023-03-19T10:58:41;0.30;;;0.30;;
1354;SDS011;671;48.972;9.276;2023-03-19T11:01:20;0.30;;;0.30;;
1354;SDS011;671;48.972;9.276;2023-03-19T11:03:56;0.30;;;0.30;;
1354;SDS011;671;48.972;9.276;2023-03-19T11:06:31;0.30;;;0.30;;
1354;SDS011;671;48.972;9.276;2023-03-19T11:12:06;0.40;;;0.30;;
1354;SDS011;671;48.972;9.276;2023-03-19T11:14:39;0.30;;;0.20;;
1354;SDS011;671;48.972;9.276;2023-03-19T11:20:17;0.30;;;0.30;;
1354;SDS011;671;48.972;9.276;2023-03-19T11:22:44;0.30;;;0.30;;
1354;SDS011;671;48.972;9.276;2023-03-19T11:25:16;0.30;;;0.23;;
1354;SDS011;671;48.972;9.276;2023-03-19T11:30:27;0.30;;;0.20;;
1354;SDS011;671;48.972;9.276;2023-03-19T11:35:54;0.30;;;0.30;;
1354;SDS011;671;48.972;9.276;2023-03-19T11:41:11;0.30;;;0.30;;
1354;SDS011;671;48.972;9.276;2023-03-19T11:43:58;0.30;;;0.20;;
1354;SDS011;671;48.972;9.276;2023-03-19T11:46:35;0.30;;;0.30;;
1354;SDS011;671;48.972;9.276;2023-03-19T11:52:01;0.40;;;0.30;;
1354;SDS011;671;48.972;9.276;2023-03-19T12:00:29;0.30;;;0.20;;
1354;SDS011;671;48.972;9.276;2023-03-19T12:08:30;0.30;;;0.20;;
1354;SDS011;671;48.972;9.276;2023-03-19T12:22:22;0.30;;;0.20;;
1354;SDS011;671;48.972;9.276;2023-03-19T12:28:07;0.30;;;0.20;;
1354;SDS011;671;48.972;9.276;2023-03-19T12:35:59;0.30;;;0.20;;
1354;SDS011;671;48.972;9.276;2023-03-19T12:38:35;0.30;;;0.20;;
1354;SDS011;671;48.972;9.276;2023-03-19T12:41:17;0.30;;;0.20;;
1354;SDS011;671;48.972;9.276;2023-03-19T12:46:38;0.30;;;0.20;;
1354;SDS011;671;48.972;9.276;2023-03-19T12:52:07;0.30;;;0.20;;
1354;SDS011;671;48.972;9.276;2023-03-19T12:54:43;0.30;;;0.20;;
1354;SDS011;671;48.972;9.276;2023-03-19T12:57:20;0.30;;;0.20;;
1354;SDS011;671;48.972;9.276;2023-03-19T13:08:03;0.30;;;0.30;;
1354;SDS011;671;48.972;9.276;2023-03-19T13:10:43;0.30;;;0.20;;
1354;SDS011;671;48.972;9.276;2023-03-19T13:16:06;0.30;;;0.20;;
1354;SDS011;671;48.972;9.276;2023-03-19T13:18:49;0.30;;;0.30;;
1354;SDS011;671;48.972;9.276;2023-03-19T13:21:25;0.30;;;0.30;;
1354;SDS011;671;48.972;9.276;2023-03-19T13:24:01;0.30;;;0.30;;
1354;SDS011;671;48.972;9.276;2023-03-19T13:26:50;0.30;;;0.20;;
1354;SDS011;671;48.972;9.276;2023-03-19T13:29:20;0.30;;;0.30;;
1354;SDS011;671;48.972;9.276;2023-03-19T13:31:49;0.30;;;0.20;;
1354;SDS011;671;48.972;9.276;2023-03-19T13:36:46;0.30;;;0.30;;
1354;SDS011;671;48.972;9.276;2023-03-19T13:39:18;0.30;;;0.30;;
1354;SDS011;671;48.972;9.276;2023-03-19T13:41:50;0.30;;;0.30;;
1354;SDS011;671;48.972;9.276;2023-03-19T13:47:01;0.40;;;0.40;;
1354;SDS011;671;48.972;9.276;2023-03-19T13:49:37;0.30;;;0.30;;
1354;SDS011;671;48.972;9.276;2023-03-19T13:54:53;0.30;;;0.20;;
1354;SDS011;671;48.972;9.276;2023-03-19T13:57:31;0.30;;;0.20;;
1354;SDS011;671;48.972;9.276;2023-03-19T14:03:05;0.40;;;0.40;;
1354;SDS011;671;48.972;9.276;2023-03-19T14:05:50;0.40;;;0.40;;
1354;SDS011;671;48.972;9.276;2023-03-19T14:08:19;0.30;;;0.20;;
1354;SDS011;671;48.972;9.276;2023-03-19T14:10:48;0.40;;;0.30;;
1354;SDS011;671;48.972;9.276;2023-03-19T14:13:20;0.30;;;0.20;;
1354;SDS011;671;48.972;9.276;2023-03-19T14:16:00;0.30;;;0.30;;
1354;SDS011;671;48.972;9.276;2023-03-19T14:18:36;0.30;;;0.30;;
1354;SDS011;671;48.972;9.276;2023-03-19T14:21:13;0.30;;;0.30;;
1354;SDS011;671;48.972;9.276;2023-03-19T14:23:50;0.30;;;0.30;;
1354;SDS011;671;48.972;9.276;2023-03-19T14:26:20;0.40;;;0.40;;
1354;SDS011;671;48.972;9.276;2023-03-19T14:29:01;0.40;;;0.40;;
1354;SDS011;671;48.972;9.276;2023-03-19T14:31:45;0.30;;;0.30;;
1354;SDS011;671;48.972;9.276;2023-03-19T14:39:49;0.40;;;0.40;;
1354;SDS011;671;48.972;9.276;2023-03-19T14:42:28;0.30;;;0.30;;
1354;SDS011;671;48.972;9.276;2023-03-19T14:53:08;0.40;;;0.40;;
1354;SDS011;671;48.972;9.276;2023-03-19T14:55:54;0.30;;;0.30;;
1354;SDS011;671;48.972;9.276;2023-03-19T14:58:27;0.40;;;0.40;;
1354;SDS011;671;48.972;9.276;2023-03-19T15:00:53;0.30;;;0.30;;
1354;SDS011;671;48.972;9.276;2023-03-19T15:03:22;0.40;;;0.40;;
1354;SDS011;671;48.972;9.276;2023-03-19T15:05:58;0.30;;;0.30;;
1354;SDS011;671;48.972;9.276;2023-03-19T15:08:28;0.40;;;0.40;;
1354;SDS011;671;48.972;9.276;2023-03-19T15:18:48;0.30;;;0.30;;
1354;SDS011;671;48.972;9.276;2023-03-19T15:21:15;0.40;;;0.40;;
1354;SDS011;671;48.972;9.276;2023-03-19T15:23:44;0.40;;;0.40;;
1354;SDS011;671;48.972;9.276;2023-03-19T15:26:11;0.40;;;0.40;;
1354;SDS011;671;48.972;9.276;2023-03-19T15:31:12;0.40;;;0.40;;
1354;SDS011;671;48.972;9.276;2023-03-19T15:33:40;0.40;;;0.40;;
1354;SDS011;671;48.972;9.276;2023-03-19T15:38:48;0.40;;;0.30;;
1354;SDS011;671;48.972;9.276;2023-03-19T15:41:17;0.40;;;0.40;;
1354;SDS011;671;48.972;9.276;2023-03-19T15:43:44;0.43;;;0.43;;
1354;SDS011;671;48.972;9.276;2023-03-19T15:46:15;0.40;;;0.40;;
1354;SDS011;671;48.972;9.276;2023-03-19T15:48:52;0.40;;;0.40;;
1354;SDS011;671;48.972;9.276;2023-03-19T15:51:23;0.50;;;0.50;;
1354;SDS011;671;48.972;9.276;2023-03-19T15:53:51;0.40;;;0.40;;
1354;SDS011;671;48.972;9.276;2023-03-19T15:56:18;0.50;;;0.50;;
1354;SDS011;671;48.972;9.276;2023-03-19T15:58:47;0.40;;;0.40;;
1354;SDS011;671;48.972;9.276;2023-03-19T16:01:16;0.50;;;0.50;;
1354;SDS011;671;48.972;9.276;2023-03-19T16:03:44;0.47;;;0.47;;
1354;SDS011;671;48.972;9.276;2023-03-19T16:06:23;0.43;;;0.43;;
1354;SDS011;671;48.972;9.276;2023-03-19T16:08:53;0.50;;;0.50;;
1354;SDS011;671;48.972;9.276;2023-03-19T16:13:59;0.40;;;0.40;;
1354;SDS011;671;48.972;9.276;2023-03-19T16:16:34;0.40;;;0.40;;
1354;SDS011;671;48.972;9.276;2023-03-19T16:19:03;0.40;;;0.40;;
1354;SDS011;671;48.972;9.276;2023-03-19T16:21:37;0.40;;;0.37;;
1354;SDS011;671;48.972;9.276;2023-03-19T16:26:49;0.40;;;0.40;;
1354;SDS011;671;48.972;9.276;2023-03-19T16:32:26;0.50;;;0.50;;
1354;SDS011;671;48.972;9.276;2023-03-19T16:42:38;0.40;;;0.40;;
1354;SDS011;671;48.972;9.276;2023-03-19T16:47:51;0.40;;;0.30;;
1354;SDS011;671;48.972;9.276;2023-03-19T16:50:20;0.50;;;0.50;;
1354;SDS011;671;48.972;9.276;2023-03-19T16:52:54;0.40;;;0.40;;
1354;SDS011;671;48.972;9.276;2023-03-19T16:55:23;0.50;;;0.50;;
1354;SDS011;671;48.972;9.276;2023-03-19T17:00:22;0.40;;;0.40;;
1354;SDS011;671;48.972;9.276;2023-03-19T17:02:51;0.43;;;0.43;;
1354;SDS011;671;48.972;9.276;2023-03-19T17:05:20;0.40;;;0.40;;
1354;SDS011;671;48.972;9.276;2023-03-19T17:07:47;0.50;;;0.50;;
1354;SDS011;671;48.972;9.276;2023-03-19T17:10:16;0.50;;;0.50;;
1354;SDS011;671;48.972;9.276;2023-03-19T17:12:44;0.40;;;0.30;;
1354;SDS011;671;48.972;9.276;2023-03-19T17:15:26;0.50;;;0.50;;
1354;SDS011;671;48.972;9.276;2023-03-19T17:18:02;0.40;;;0.40;;
1354;SDS011;671;48.972;9.276;2023-03-19T17:20:40;0.40;;;0.40;;
1354;SDS011;671;48.972;9.276;2023-03-19T17:23:13;0.40;;;0.40;;
1354;SDS011;671;48.972;9.276;2023-03-19T17:25:39;0.50;;;0.50;;
1354;SDS011;671;48.972;9.276;2023-03-19T17:28:06;0.30;;;0.23;;
1354;SDS011;671;48.972;9.276;2023-03-19T17:30:32;0.50;;;0.50;;
1354;SDS011;671;48.972;9.276;2023-03-19T17:32:59;0.50;;;0.50;;
1354;SDS011;671;48.972;9.276;2023-03-19T17:35:25;0.47;;;0.47;;
1354;SDS011;671;48.972;9.276;2023-03-19T17:37:52;0.50;;;0.50;;
1354;SDS011;671;48.972;9.276;2023-03-19T17:42:47;0.40;;;0.40;;
1354;SDS011;671;48.972;9.276;2023-03-19T17:45:14;0.40;;;0.37;;
1354;SDS011;671;48.972;9.276;2023-03-19T17:47:43;0.50;;;0.50;;
1354;SDS011;671;48.972;9.276;2023-03-19T17:50:15;0.50;;;0.50;;
1354;SDS011;671;48.972;9.276;2023-03-19T17:52:44;0.40;;;0.40;;
1354;SDS011;671;48.972;9.276;2023-03-19T17:55:14;0.50;;;0.50;;
1354;SDS011;671;48.972;9.276;2023-03-19T17:57:43;0.40;;;0.40;;
1354;SDS011;671;48.972;9.276;2023-03-19T18:00:10;0.50;;;0.50;;
1354;SDS011;671;48.972;9.276;2023-03-19T18:02:38;0.50;;;0.50;;
1354;SDS011;671;48.972;9.276;2023-03-19T18:05:12;0.40;;;0.40;;
1354;SDS011;671;48.972;9.276;2023-03-19T18:07:43;0.50;;;0.50;;